createdAt,value
2017-11-15T00:01:25.974Z,6.80
2017-11-15T00:03:52.834Z,6.80
2017-11-15T00:06:19.701Z,6.80
2017-11-15T00:08:46.637Z,6.90
2017-11-15T00:11:13.511Z,6.90
2017-11-15T00:13:40.400Z,6.80
2017-11-15T00:16:08.109Z,6.80
2017-11-15T00:18:35.034Z,6.90
2017-11-15T00:21:01.936Z,6.90
2017-11-15T00:23:28.896Z,7.00
2017-11-15T00:25:55.812Z,7.00
2017-11-15T00:28:22.678Z,7.00
2017-11-15T00:30:49.605Z,7.00
2017-11-15T00:33:16.544Z,7.00
2017-11-15T00:35:43.469Z,7.00
2017-11-15T00:38:10.506Z,7.00
2017-11-15T00:40:37.467Z,7.00
2017-11-15T00:43:04.355Z,7.10
2017-11-15T00:45:31.982Z,7.10
2017-11-15T00:47:59.011Z,7.00
2017-11-15T00:50:25.894Z,7.00
2017-11-15T00:52:52.764Z,7.00
2017-11-15T00:55:20.431Z,7.00
2017-11-15T00:57:47.294Z,7.00
2017-11-15T01:00:14.301Z,7.10
2017-11-15T01:02:41.182Z,7.10
2017-11-15T01:05:08.180Z,7.10
2017-11-15T01:07:35.080Z,7.20
2017-11-15T01:10:01.945Z,7.20
2017-11-15T01:12:28.893Z,7.20
2017-11-15T01:14:55.754Z,7.20
2017-11-15T01:17:22.783Z,7.20
2017-11-15T01:19:49.911Z,7.20
2017-11-15T01:22:17.929Z,7.20
2017-11-15T01:24:45.068Z,7.20
2017-11-15T01:27:11.970Z,7.20
2017-11-15T01:29:39.648Z,7.20
2017-11-15T01:32:06.536Z,7.10
2017-11-15T01:34:33.497Z,7.10
2017-11-15T01:37:00.402Z,7.10
2017-11-15T01:39:27.301Z,7.00
2017-11-15T01:41:54.267Z,7.00
2017-11-15T01:44:21.972Z,7.00
2017-11-15T01:46:49.001Z,7.00
2017-11-15T01:49:16.023Z,7.00
2017-11-15T01:51:43.713Z,7.00
2017-11-15T01:54:10.754Z,7.00
2017-11-15T01:56:37.759Z,7.10
2017-11-15T01:59:04.779Z,7.10
2017-11-15T02:01:37.891Z,7.10
2017-11-15T02:04:04.850Z,7.10
2017-11-15T02:06:45.621Z,7.10
2017-11-15T02:12:12.556Z,7.00
2017-11-15T02:14:55.520Z,7.00
2017-11-15T02:17:38.765Z,7.00
2017-11-15T02:20:22.384Z,7.00
2017-11-15T02:23:06.169Z,6.90
2017-11-15T02:25:47.453Z,6.90
2017-11-15T02:28:31.955Z,6.80
2017-11-15T02:31:15.089Z,6.90
2017-11-15T02:33:57.226Z,6.80
2017-11-15T02:36:38.560Z,6.90
2017-11-15T02:39:21.806Z,6.80
2017-11-15T02:42:02.958Z,6.70
2017-11-15T02:44:45.745Z,6.70
2017-11-15T02:47:28.747Z,6.70
2017-11-15T02:50:10.999Z,6.70
2017-11-15T02:52:38.965Z,6.70
2017-11-15T02:55:05.856Z,6.60
2017-11-15T02:57:33.506Z,6.60
2017-11-15T03:00:00.460Z,6.60
2017-11-15T03:02:28.118Z,6.70
2017-11-15T03:04:55.816Z,6.80
2017-11-15T03:07:22.812Z,6.70
2017-11-15T03:09:49.673Z,6.70
2017-11-15T03:12:17.420Z,6.70
2017-11-15T03:14:44.322Z,6.60
2017-11-15T03:17:11.229Z,6.70
2017-11-15T03:19:38.966Z,6.70
2017-11-15T03:22:05.923Z,6.70
2017-11-15T03:24:32.844Z,6.60
2017-11-15T03:26:59.866Z,6.60
2017-11-15T03:29:26.788Z,6.40
2017-11-15T03:31:54.450Z,6.50
2017-11-15T03:34:22.156Z,6.50
2017-11-15T03:36:49.041Z,6.40
2017-11-15T03:39:16.005Z,6.30
2017-11-15T03:41:43.618Z,6.40
2017-11-15T03:44:10.561Z,6.40
2017-11-15T03:46:37.524Z,6.40
2017-11-15T03:49:04.408Z,6.40
2017-11-15T03:51:31.318Z,6.40
2017-11-15T03:53:58.375Z,6.50
2017-11-15T03:56:25.264Z,6.40
2017-11-15T03:58:52.134Z,6.50
2017-11-15T04:01:19.064Z,6.30
2017-11-15T04:03:45.969Z,6.20
2017-11-15T04:06:13.702Z,6.30
2017-11-15T04:08:40.567Z,6.30
2017-11-15T04:11:07.454Z,6.20
2017-11-15T04:13:34.384Z,6.20
2017-11-15T04:16:02.014Z,6.00
2017-11-15T04:18:28.957Z,6.00
2017-11-15T04:20:55.834Z,6.00
2017-11-15T04:23:23.556Z,5.80
2017-11-15T04:25:50.535Z,5.80
2017-11-15T04:28:18.196Z,5.70
2017-11-15T04:30:45.073Z,5.70
2017-11-15T04:33:12.029Z,5.70
2017-11-15T04:35:39.064Z,5.60
2017-11-15T04:38:05.996Z,5.70
2017-11-15T04:40:32.960Z,5.70
2017-11-15T04:42:59.856Z,5.80
2017-11-15T04:45:26.846Z,5.80
2017-11-15T04:47:53.832Z,5.90
2017-11-15T04:50:20.865Z,6.00
2017-11-15T04:52:47.722Z,6.00
2017-11-15T04:55:14.577Z,6.10
2017-11-15T04:57:41.511Z,6.10
2017-11-15T05:00:08.508Z,6.10
2017-11-15T05:02:35.463Z,6.10
2017-11-15T05:05:15.264Z,6.10
2017-11-15T05:07:59.041Z,6.10
2017-11-15T05:10:40.903Z,6.20
2017-11-15T05:13:24.368Z,6.20
2017-11-15T05:16:07.407Z,6.20
2017-11-15T05:18:35.489Z,6.20
2017-11-15T05:21:02.606Z,6.10
2017-11-15T05:23:29.548Z,6.10
2017-11-15T05:25:59.343Z,6.00
2017-11-15T05:28:40.804Z,6.00
2017-11-15T05:31:21.329Z,6.00
2017-11-15T05:34:03.539Z,5.90
2017-11-15T05:36:43.224Z,6.00
2017-11-15T05:39:10.735Z,6.00
2017-11-15T05:41:37.653Z,5.90
2017-11-15T05:44:04.631Z,5.90
2017-11-15T05:46:31.509Z,5.90
2017-11-15T05:48:58.417Z,5.90
2017-11-15T05:51:25.391Z,5.80
2017-11-15T05:53:52.245Z,5.80
2017-11-15T05:56:19.258Z,5.90
2017-11-15T05:58:46.934Z,5.90
2017-11-15T06:01:14.565Z,5.90
2017-11-15T06:03:41.582Z,5.90
2017-11-15T06:06:08.460Z,5.90
2017-11-15T06:08:35.396Z,5.90
2017-11-15T06:16:55.129Z,5.90
2017-11-15T06:19:23.009Z,5.80
2017-11-15T06:21:49.911Z,5.70
2017-11-15T06:24:26.258Z,5.70
2017-11-15T06:27:04.246Z,5.70
2017-11-15T06:29:44.026Z,5.60
2017-11-15T06:32:30.171Z,5.70
2017-11-15T06:35:09.711Z,5.70
2017-11-15T06:37:43.690Z,5.80
2017-11-15T06:40:18.102Z,5.80
2017-11-15T06:42:45.712Z,5.80
2017-11-15T06:45:13.393Z,5.90
2017-11-15T06:47:40.385Z,5.90
2017-11-15T06:50:07.241Z,5.90
2017-11-15T06:52:34.139Z,6.00
2017-11-15T06:55:01.096Z,6.00
2017-11-15T06:57:27.971Z,6.10
2017-11-15T06:59:54.905Z,6.10
2017-11-15T07:02:21.838Z,6.00
2017-11-15T07:04:48.761Z,6.10
2017-11-15T07:07:15.625Z,6.20
2017-11-15T07:09:42.562Z,6.10
2017-11-15T07:12:09.501Z,6.20
2017-11-15T07:14:36.445Z,6.20
2017-11-15T07:17:03.319Z,6.30
2017-11-15T07:19:30.269Z,6.30
2017-11-15T07:21:57.250Z,6.30
2017-11-15T07:24:24.105Z,6.30
2017-11-15T07:26:51.035Z,6.40
2017-11-15T07:29:18.021Z,6.40
2017-11-15T07:31:44.897Z,6.40
2017-11-15T07:34:11.766Z,6.50
2017-11-15T07:36:38.693Z,6.60
2017-11-15T07:39:05.594Z,6.70
2017-11-15T07:41:33.297Z,6.80
2017-11-15T07:44:00.168Z,6.80
2017-11-15T07:46:27.086Z,6.90
2017-11-15T07:48:54.037Z,7.00
2017-11-15T07:51:20.997Z,7.20
2017-11-15T07:53:47.959Z,7.30
2017-11-15T07:56:14.838Z,7.30
2017-11-15T07:58:41.732Z,7.30
2017-11-15T08:01:08.682Z,7.30
2017-11-15T08:03:35.580Z,7.40
2017-11-15T08:06:02.536Z,7.50
2017-11-15T08:08:29.417Z,7.70
2017-11-15T08:10:56.285Z,7.70
2017-11-15T08:13:23.218Z,7.70
2017-11-15T08:15:50.090Z,7.80
2017-11-15T08:18:17.082Z,7.90
2017-11-15T08:20:43.973Z,7.90
2017-11-15T08:23:11.634Z,8.00
2017-11-15T08:25:39.321Z,8.10
2017-11-15T08:28:06.262Z,8.10
2017-11-15T08:30:33.975Z,8.20
2017-11-15T08:33:00.830Z,8.20
2017-11-15T08:35:27.691Z,8.20
2017-11-15T08:37:54.645Z,8.30
2017-11-15T08:40:21.558Z,8.30
2017-11-15T08:42:56.446Z,8.30
2017-11-15T08:45:29.469Z,8.20
2017-11-15T08:47:57.021Z,8.30
2017-11-15T08:50:24.082Z,8.30
2017-11-15T08:52:50.978Z,8.40
2017-11-15T08:55:18.662Z,8.50
2017-11-15T08:57:45.681Z,8.60
2017-11-15T09:00:12.619Z,8.70
2017-11-15T09:02:39.609Z,8.70
2017-11-15T09:05:06.512Z,8.80
2017-11-15T09:07:33.503Z,8.90
2017-11-15T09:10:00.383Z,8.70
2017-11-15T09:12:27.305Z,8.70
2017-11-15T09:14:54.338Z,8.60
2017-11-15T09:17:21.217Z,8.70
2017-11-15T09:19:48.070Z,8.60
2017-11-15T09:22:15.097Z,8.60
2017-11-15T09:24:41.986Z,8.50
2017-11-15T09:27:09.621Z,8.60
2017-11-15T09:29:36.573Z,8.60
2017-11-15T09:32:03.457Z,8.90
2017-11-15T09:34:30.365Z,9.00
2017-11-15T09:36:57.304Z,9.20
2017-11-15T09:39:24.309Z,9.30
2017-11-15T09:41:51.300Z,9.30
2017-11-15T09:44:18.277Z,9.50
2017-11-15T09:46:46.087Z,9.80
2017-11-15T09:49:13.055Z,9.80
2017-11-15T09:51:40.008Z,9.80
2017-11-15T09:54:06.917Z,9.70
2017-11-15T09:56:33.901Z,10.00
2017-11-15T09:59:00.907Z,10.20
2017-11-15T10:01:27.927Z,10.40
2017-11-15T10:03:55.550Z,10.70
2017-11-15T10:06:22.425Z,10.70
2017-11-15T10:08:49.374Z,10.90
2017-11-15T10:11:16.231Z,10.60
2017-11-15T10:13:43.865Z,11.30
2017-11-15T10:16:10.802Z,11.30
2017-11-15T10:18:37.741Z,11.70
2017-11-15T10:21:04.714Z,12.10
2017-11-15T10:23:31.656Z,12.40
2017-11-15T10:25:58.665Z,12.70
2017-11-15T10:28:25.539Z,12.80
2017-11-15T10:30:52.468Z,12.90
2017-11-15T10:33:19.440Z,13.20
2017-11-15T10:35:46.324Z,13.10
2017-11-15T10:38:13.216Z,13.20
2017-11-15T10:40:40.165Z,12.90
2017-11-15T10:43:07.039Z,12.70
2017-11-15T10:45:33.931Z,12.50
2017-11-15T10:48:00.925Z,12.40
2017-11-15T10:50:27.871Z,12.40
2017-11-15T10:52:54.741Z,12.00
2017-11-15T10:55:21.699Z,11.70
2017-11-15T10:57:48.617Z,11.80
2017-11-15T11:00:15.661Z,12.00
2017-11-15T11:02:42.714Z,12.00
2017-11-15T11:05:09.692Z,11.90
2017-11-15T11:07:36.632Z,11.90
2017-11-15T11:10:03.706Z,11.70
2017-11-15T11:12:30.579Z,12.00
2017-11-15T11:14:57.610Z,11.90
2017-11-15T11:17:27.533Z,12.10
2017-11-15T11:19:54.569Z,12.00
2017-11-15T11:22:21.500Z,12.10
2017-11-15T11:24:48.389Z,12.20
2017-11-15T11:27:15.366Z,12.30
2017-11-15T11:29:42.236Z,12.30
2017-11-15T11:32:09.172Z,12.20
2017-11-15T11:34:36.054Z,12.20
2017-11-15T11:37:03.072Z,12.30
2017-11-15T11:39:29.988Z,12.30
2017-11-15T11:41:56.981Z,12.60
2017-11-15T11:44:23.884Z,12.30
2017-11-15T11:46:51.488Z,12.30
2017-11-15T11:49:18.445Z,12.30
2017-11-15T11:51:45.349Z,12.00
2017-11-15T11:54:12.358Z,12.10
2017-11-15T11:56:39.262Z,12.20
2017-11-15T11:59:06.205Z,12.00
2017-11-15T12:01:33.161Z,11.90
2017-11-15T12:04:00.026Z,11.60
2017-11-15T12:06:27.035Z,11.50
2017-11-15T12:08:53.955Z,11.30
2017-11-15T12:11:20.921Z,11.10
2017-11-15T12:13:47.873Z,11.10
2017-11-15T12:16:14.729Z,11.00
2017-11-15T12:18:41.626Z,11.10
2017-11-15T12:21:08.569Z,10.90
2017-11-15T12:23:35.432Z,11.10
2017-11-15T12:26:02.387Z,11.10
2017-11-15T12:28:29.306Z,11.00
2017-11-15T12:30:56.303Z,11.20
2017-11-15T12:33:23.211Z,11.30
2017-11-15T12:35:51.042Z,11.50
2017-11-15T12:38:17.939Z,11.50
2017-11-15T12:40:44.904Z,11.60
2017-11-15T12:43:11.813Z,11.70
2017-11-15T12:45:41.670Z,11.50
2017-11-15T12:48:08.673Z,11.50
2017-11-15T12:50:36.402Z,11.60
2017-11-15T12:53:03.324Z,11.60
2017-11-15T12:55:33.457Z,11.50
2017-11-15T12:58:01.396Z,11.50
2017-11-15T13:00:35.735Z,11.40
2017-11-15T13:03:03.993Z,11.50
2017-11-15T13:05:30.856Z,11.50
2017-11-15T13:07:57.756Z,11.60
2017-11-15T13:10:24.704Z,11.40
2017-11-15T13:12:51.645Z,11.40
2017-11-15T13:15:31.804Z,11.30
2017-11-15T13:17:59.517Z,11.10
2017-11-15T13:20:26.490Z,11.10
2017-11-15T13:22:53.455Z,11.20
2017-11-15T13:25:20.741Z,11.10
2017-11-15T13:27:47.660Z,11.00
2017-11-15T13:30:22.385Z,11.10
2017-11-15T13:32:52.142Z,11.10
2017-11-15T13:35:23.978Z,11.10
2017-11-15T13:37:51.983Z,11.10
2017-11-15T13:40:22.448Z,11.10
2017-11-15T13:42:49.320Z,11.10
2017-11-15T13:45:17.047Z,11.10
2017-11-15T13:47:44.988Z,11.10
2017-11-15T13:50:11.973Z,11.10
2017-11-15T13:52:38.852Z,11.00
2017-11-15T13:55:05.724Z,10.90
2017-11-15T13:57:32.680Z,11.10
2017-11-15T13:59:59.537Z,11.10
2017-11-15T14:02:26.466Z,11.10
2017-11-15T14:04:53.418Z,11.10
2017-11-15T14:07:20.306Z,11.10
2017-11-15T14:09:59.986Z,11.00
2017-11-15T14:12:27.556Z,11.10
2017-11-15T14:14:57.830Z,11.20
2017-11-15T14:17:25.086Z,11.10
2017-11-15T14:20:06.601Z,11.10
2017-11-15T14:22:34.491Z,11.00
2017-11-15T14:25:01.532Z,11.00
2017-11-15T14:27:28.410Z,11.00
2017-11-15T14:29:55.276Z,11.00
2017-11-15T14:32:22.217Z,11.00
2017-11-15T14:34:49.087Z,10.90
2017-11-15T14:37:16.799Z,10.80
2017-11-15T14:39:43.814Z,10.80
2017-11-15T14:42:10.751Z,10.70
2017-11-15T14:44:37.728Z,10.60
2017-11-15T14:47:04.625Z,10.60
2017-11-15T14:49:32.242Z,10.50
2017-11-15T14:51:59.182Z,10.40
2017-11-15T14:54:26.060Z,10.40
2017-11-15T14:56:52.976Z,10.30
2017-11-15T14:59:19.863Z,10.20
2017-11-15T15:01:46.743Z,10.20
2017-11-15T15:04:13.702Z,10.20
2017-11-15T15:06:40.568Z,10.10
2017-11-15T15:09:07.460Z,10.00
2017-11-15T15:11:35.145Z,9.80
2017-11-15T15:14:02.035Z,9.80
2017-11-15T15:16:28.904Z,9.70
2017-11-15T15:18:55.969Z,9.60
2017-11-15T15:21:23.609Z,9.50
2017-11-15T15:23:51.276Z,9.40
2017-11-15T15:26:18.326Z,9.40
2017-11-15T15:28:45.257Z,9.30
2017-11-15T15:31:12.130Z,9.30
2017-11-15T15:33:39.110Z,9.30
2017-11-15T15:36:06.015Z,9.20
2017-11-15T15:38:33.706Z,9.10
2017-11-15T15:41:00.584Z,9.10
2017-11-15T15:43:27.455Z,9.00
2017-11-15T15:45:54.388Z,8.90
2017-11-15T15:48:21.299Z,8.80
2017-11-15T15:50:48.247Z,8.80
2017-11-15T15:53:15.110Z,8.70
2017-11-15T15:55:41.998Z,8.70
2017-11-15T15:58:09.702Z,8.60
2017-11-15T16:00:36.853Z,8.60
2017-11-15T16:03:05.655Z,8.60
2017-11-15T16:05:32.621Z,8.60
2017-11-15T16:07:59.588Z,8.60
2017-11-15T16:10:26.491Z,8.60
2017-11-15T16:12:53.502Z,8.60
2017-11-15T16:15:20.508Z,8.40
2017-11-15T16:17:47.482Z,8.40
2017-11-15T16:20:14.517Z,8.40
2017-11-15T16:22:41.418Z,8.40
2017-11-15T16:25:08.561Z,8.60
2017-11-15T16:27:42.963Z,8.60
2017-11-15T16:30:11.292Z,8.50
2017-11-15T16:32:41.897Z,8.50
2017-11-15T16:35:08.857Z,8.50
2017-11-15T16:37:38.110Z,8.60
2017-11-15T16:40:04.997Z,8.60
2017-11-15T16:42:31.924Z,8.60
2017-11-15T16:44:58.893Z,8.60
2017-11-15T16:47:28.132Z,8.60
2017-11-15T16:49:55.194Z,8.60
2017-11-15T16:52:24.278Z,8.60
2017-11-15T16:54:51.137Z,8.50
2017-11-15T16:57:18.809Z,8.40
2017-11-15T16:59:46.448Z,8.40
2017-11-15T17:02:15.045Z,8.30
2017-11-15T17:04:45.029Z,8.40
2017-11-15T17:07:11.930Z,8.40
2017-11-15T17:09:39.535Z,8.40
2017-11-15T17:12:06.532Z,8.50
2017-11-15T17:14:35.345Z,8.50
2017-11-15T17:17:02.385Z,8.50
2017-11-15T17:19:29.491Z,8.50
2017-11-15T17:21:57.007Z,8.60
2017-11-15T17:24:23.969Z,8.60
2017-11-15T17:26:50.913Z,8.70
2017-11-15T17:29:18.967Z,8.60
2017-11-15T17:31:46.749Z,8.80
2017-11-15T17:34:29.556Z,8.70
2017-11-15T17:36:58.258Z,8.60
2017-11-15T17:39:25.155Z,8.60
2017-11-15T17:41:52.861Z,8.70
2017-11-15T17:44:19.779Z,8.60
2017-11-15T17:46:46.842Z,8.70
2017-11-15T17:49:13.995Z,8.60
2017-11-15T17:51:41.000Z,8.60
2017-11-15T17:54:08.997Z,8.60
2017-11-15T17:56:37.670Z,8.60
2017-11-15T17:59:04.645Z,8.70
2017-11-15T18:01:31.585Z,8.60
2017-11-15T18:03:58.536Z,8.50
2017-11-15T18:06:25.432Z,8.60
2017-11-15T18:08:52.437Z,8.60
2017-11-15T18:11:19.306Z,8.50
2017-11-15T18:13:46.253Z,8.20
2017-11-15T18:16:13.113Z,8.50
2017-11-15T18:18:40.013Z,8.50
2017-11-15T18:21:06.984Z,8.50
2017-11-15T18:23:33.865Z,8.50
2017-11-15T18:26:00.731Z,8.50
2017-11-15T18:28:27.648Z,8.50
2017-11-15T18:30:54.664Z,8.50
2017-11-15T18:33:21.542Z,8.50
2017-11-15T18:35:48.453Z,8.50
2017-11-15T18:38:15.406Z,8.50
2017-11-15T18:40:42.281Z,8.40
2017-11-15T18:43:09.973Z,8.30
2017-11-15T18:45:36.906Z,8.30
2017-11-15T18:48:03.860Z,8.20
2017-11-15T18:50:30.740Z,8.10
2017-11-15T18:52:57.713Z,8.20
2017-11-15T18:55:24.637Z,8.20
2017-11-15T18:57:51.524Z,8.10
2017-11-15T19:00:19.216Z,7.90
2017-11-15T19:02:46.129Z,7.90
2017-11-15T19:05:13.018Z,8.00
2017-11-15T19:07:41.414Z,8.00
2017-11-15T19:10:08.369Z,8.00
2017-11-15T19:12:35.247Z,8.00
2017-11-15T19:15:03.337Z,7.80
2017-11-15T19:17:31.016Z,7.90
2017-11-15T19:19:57.892Z,7.90
2017-11-15T19:22:24.797Z,7.60
2017-11-15T19:24:51.793Z,7.70
2017-11-15T19:27:18.692Z,7.60
2017-11-15T19:29:45.635Z,7.60
2017-11-15T19:32:12.540Z,7.70
2017-11-15T19:34:39.489Z,7.70
2017-11-15T19:37:06.460Z,7.80
2017-11-15T19:39:34.143Z,7.80
2017-11-15T19:42:01.169Z,7.90
2017-11-15T19:44:28.213Z,8.00
2017-11-15T19:46:55.840Z,8.00
2017-11-15T19:49:22.721Z,8.00
2017-11-15T19:51:49.633Z,8.00
2017-11-15T19:54:16.514Z,8.00
2017-11-15T19:56:44.205Z,8.00
2017-11-15T19:59:11.154Z,8.10
2017-11-15T20:01:38.106Z,8.00
2017-11-15T20:04:05.084Z,7.90
2017-11-15T20:06:32.034Z,8.00
2017-11-15T20:08:58.905Z,8.00
2017-11-15T20:11:26.663Z,7.70
2017-11-15T20:13:54.354Z,7.60
2017-11-15T20:16:21.221Z,7.60
2017-11-15T20:18:48.195Z,7.80
2017-11-15T20:21:15.071Z,7.60
2017-11-15T20:23:42.764Z,7.40
2017-11-15T20:26:09.650Z,7.30
2017-11-15T20:28:36.608Z,7.50
2017-11-15T20:31:03.490Z,7.30
2017-11-15T20:33:30.431Z,7.30
2017-11-15T20:35:57.376Z,7.40
2017-11-15T20:38:24.249Z,7.60
2017-11-15T20:40:51.221Z,7.20
2017-11-15T20:43:18.166Z,7.30
2017-11-15T20:45:45.100Z,7.40
2017-11-15T20:48:12.098Z,7.30
2017-11-15T20:50:38.979Z,7.30
2017-11-15T20:53:06.009Z,7.30
2017-11-15T20:55:32.969Z,7.30
2017-11-15T20:57:59.918Z,7.20
2017-11-15T21:00:26.813Z,7.20
2017-11-15T21:02:53.776Z,7.10
2017-11-15T21:05:20.665Z,7.20
2017-11-15T21:07:47.619Z,7.30
2017-11-15T21:10:14.566Z,7.30
2017-11-15T21:12:41.550Z,7.40
2017-11-15T21:15:09.246Z,7.40
2017-11-15T21:17:36.207Z,7.40
2017-11-15T21:20:03.154Z,7.30
2017-11-15T21:22:30.100Z,7.20
2017-11-15T21:24:57.011Z,7.00
2017-11-15T21:27:23.984Z,7.10
2017-11-15T21:29:50.893Z,7.00
2017-11-15T21:32:18.601Z,6.90
2017-11-15T21:34:45.503Z,6.90
2017-11-15T21:37:13.193Z,6.80
2017-11-15T21:39:40.114Z,6.80
2017-11-15T21:42:07.801Z,6.60
2017-11-15T21:44:34.686Z,6.60
2017-11-15T21:47:01.680Z,6.60
2017-11-15T21:49:29.381Z,6.50
2017-11-15T21:51:56.262Z,6.50
2017-11-15T21:54:23.264Z,6.60
2017-11-15T21:56:50.156Z,6.40
2017-11-15T21:59:17.095Z,6.50
2017-11-15T22:01:44.018Z,6.30
2017-11-15T22:04:10.937Z,6.30
2017-11-15T22:06:37.924Z,6.30
2017-11-15T22:09:04.800Z,6.50
2017-11-15T22:11:32.419Z,6.40
2017-11-15T22:13:59.405Z,6.40
2017-11-15T22:16:26.263Z,6.50
2017-11-15T22:18:53.938Z,6.60
2017-11-15T22:21:20.858Z,6.60
2017-11-15T22:23:47.786Z,6.60
2017-11-15T22:26:14.756Z,6.60
2017-11-15T22:28:42.378Z,6.90
2017-11-15T22:31:09.356Z,6.80
2017-11-15T22:33:36.236Z,6.90
2017-11-15T22:36:03.179Z,7.00
2017-11-15T22:38:30.137Z,7.10
2017-11-15T22:40:57.049Z,6.70
2017-11-15T22:43:24.738Z,7.00
2017-11-15T22:45:51.641Z,7.00
2017-11-15T22:48:18.605Z,6.90
2017-11-15T22:50:46.225Z,7.00
2017-11-15T22:53:13.165Z,7.00
2017-11-15T22:55:40.090Z,6.60
2017-11-15T22:58:06.972Z,6.50
2017-11-15T23:00:33.949Z,6.10
2017-11-15T23:03:01.574Z,5.90
2017-11-15T23:05:28.465Z,5.90
2017-11-15T23:07:56.159Z,6.00
2017-11-15T23:10:23.033Z,6.00
2017-11-15T23:12:49.907Z,5.70
2017-11-15T23:15:16.817Z,5.70
2017-11-15T23:17:43.693Z,5.80
2017-11-15T23:20:11.405Z,5.50
2017-11-15T23:22:38.285Z,5.40
2017-11-15T23:25:05.235Z,5.20
2017-11-15T23:27:32.222Z,5.50
2017-11-15T23:29:59.833Z,5.90
2017-11-15T23:32:26.789Z,5.90
2017-11-15T23:34:53.814Z,6.20
2017-11-15T23:37:20.768Z,6.00
2017-11-15T23:39:47.665Z,6.20
2017-11-15T23:42:14.557Z,6.30
2017-11-15T23:44:41.525Z,6.50
2017-11-15T23:47:08.392Z,6.50
2017-11-15T23:49:35.364Z,6.60
2017-11-15T23:52:02.277Z,6.60
2017-11-15T23:54:29.223Z,6.70
2017-11-15T23:56:56.116Z,6.60
2017-11-15T23:59:23.090Z,6.80
